Detall de PIREP

Printer-friendly versionPDF version

[2014/06/06 07:44:00]
Flight IATA:CT3212
Pilot Number:042
Company ICAO:CAT
Aircraft Type:A320/E
PAX:96
Departing Airport: LEPA
Destination Airport: LHBP
Alternate Airport:LOWW
Online: VATSIM
Route:MEROS UN853 LUMAS UM985 MALUG UP978 VIW UP976 GRZ UP978 VEBOS
Flight Level:F350
No Slew and time accel
No pause
Crash detect
Detect pilot in Cockpit between each 30 and 45 minutes
07:44 Zero fuel Weight: 124281 Lbs, Fuel Weight: 42191 Lbs
07:44 VATSIM:LEPA 060730Z 00000KT CAVOK 25/11 Q1015 NOSIG
07:44 VATSIM:LHBP 060730Z 30006KT 250V340 CAVOK 23/14 Q1018 NOSIG
07:57 Parking Brakes off
08:03 Take-off
08:03 Take off Weight: 165081 Lbs
08:03 Wind: 269º @ 008 Knots Heading: 240º
08:03 POS N39º 32´ 58´´ E002º 42´ 55´´
08:03 Flaps:3 at 150 Knots
08:03 Gear Up: 138 Knots
08:04 Flaps:2 at 164 Knots
08:04 Flaps:0 at 168 Knots
08:18 Wind:270º@025 Knots Heading: 057º Ground Speed: 475 Knots Altitude 32247 ft
08:20 TOC
08:20 Fuel Weight: 37211 Lb
08:33 Wind:270º@025 Knots Heading: 007º Ground Speed: 451 Knots Altitude 34986 ft
08:48 Wind:270º@025 Knots Heading: 037º Ground Speed: 462 Knots Altitude 34986 ft
09:03 Wind:270º@025 Knots Heading: 057º Ground Speed: 467 Knots Altitude 34986 ft
09:18 Wind:270º@025 Knots Heading: 031º Ground Speed: 459 Knots Altitude 34983 ft
09:33 Wind:270º@025 Knots Heading: 061º Ground Speed: 467 Knots Altitude 34986 ft
09:48 Wind:270º@025 Knots Heading: 075º Ground Speed: 469 Knots Altitude 34986 ft
10:02 TOD
10:02 Fuel Weight: 28683 Lb
10:03 Wind:270º@025 Knots Heading: 066º Ground Speed: 480 Knots Altitude 32460 ft
10:17 Flaps:1 at 211 Knots
10:18 Wind:270º@021 Knots Heading: 352º Ground Speed: 224 Knots Altitude 9107 ft
10:18 Flaps:2 at 191 Knots
10:18 Flaps:1 at 191 Knots
10:19 Flaps:3 at 191 Knots
10:19 Gear Down: 182 Knots
10:19 Flaps:4 at 182 Knots
10:19 Flaps:5 at 170 Knots
10:26 TouchDown:Rate -203 ft/min Speed: 147 Knots
10:26 VATSIM:LHBP 061000Z 27005KT 220V360 9999 SCT047 24/13 Q1018 NOSIG
10:26 Land
10:26 Wind:269º@008 Knots
10:26 Heading: 310º
10:26 Flight Duration: 02:23
10:26 Landing Weight: 151706 Lbs
10:26 POS N47º 25´ 48´´ E019º 16´ 59´´
10:31 Parking brakes on
10:31 Block to Block Duration: 02:34
10:31 Final Fuel: 26931 Lbls
10:31 Spent Fuel: 15260 Lbls
10:31 Flight Length: 1011 NM
10:31 TOD Land Length: 110 NM

Exportar CSV

Powered by Drupal - Modified by Danger4k